Time;durP1;ratioP1;P1;durP2;ratioP2;P2;SDS_P1;SDS_P2;PMS_P1;PMS_P2;Temp;Humidity;BMP_temperature;BMP_pressure;BME280_temperature;BME280_humidity;BME280_pressure;Samples;Min_cycle;Max_cycle;Signal;HPM_P1;HPM_P2
2023/10/20 00:00:33;;;;;;;;;0.00;0.00;;;;;18.78;88.18;97622.19;6187918;23;45253;-68
2023/10/20 00:02:58;;;;;;;;;0.00;0.00;;;;;18.80;87.89;97628.22;6188485;23;45411;-68
2023/10/20 00:05:24;;;;;;;;;0.00;0.00;;;;;18.80;87.83;97628.22;6187823;23;57658;-68
2023/10/20 00:07:50;;;;;;;;;0.00;0.00;;;;;18.76;87.86;97618.81;6188139;23;45260;-68
2023/10/20 00:10:16;;;;;;;;;0.00;0.00;;;;;18.74;88.19;97604.63;6185589;23;45308;-68
2023/10/20 00:12:42;;;;;;;;;0.00;0.00;;;;;18.75;88.20;97602.78;6188380;23;45328;-68
2023/10/20 00:15:09;;;;;;;;;0.00;0.00;;;;;18.69;88.09;97591.66;6187362;23;45449;-68
2023/10/20 00:17:34;;;;;;;;;0.00;0.00;;;;;18.70;88.65;97584.41;6186935;23;45282;-68
2023/10/20 00:20:00;;;;;;;;;1.75;0.50;;;;;18.66;87.87;97577.66;6187617;23;45505;-68
2023/10/20 00:22:26;;;;;;;;;0.75;0.00;;;;;18.70;88.57;97584.41;6160301;23;45861;-68
2023/10/20 00:24:51;;;;;;;;;0.00;0.00;;;;;18.71;88.70;97575.28;6187301;23;47158;-68
2023/10/20 00:27:16;;;;;;;;;1.25;0.50;;;;;18.68;88.58;97562.97;6188403;23;45519;-68
2023/10/20 00:29:42;;;;;;;;;1.25;0.00;;;;;18.66;88.53;97561.44;6186131;23;45395;-68
2023/10/20 00:32:08;;;;;;;;;0.00;0.00;;;;;18.65;88.90;97570.59;6186545;23;45366;-68
2023/10/20 00:34:33;;;;;;;;;0.00;0.00;;;;;18.66;88.83;97570.41;6185346;23;46600;-68
2023/10/20 00:36:59;;;;;;;;;0.00;0.00;;;;;18.64;88.64;97577.84;6185607;23;45330;-68
2023/10/20 00:39:24;;;;;;;;;0.00;0.00;;;;;18.64;89.03;97568.88;6186196;23;45324;-68
2023/10/20 00:41:49;;;;;;;;;0.00;0.00;;;;;18.53;89.02;97556.66;6186440;23;45236;-68
2023/10/20 00:44:15;;;;;;;;;0.00;0.00;;;;;18.51;88.95;97558.69;6185381;23;46020;-68
2023/10/20 00:46:43;;;;;;;;;0.00;0.00;;;;;18.53;88.96;97575.56;6186357;23;45482;-68
2023/10/20 00:49:09;;;;;;;;;0.00;0.00;;;;;18.53;89.10;97578.25;6186284;23;45263;-68
2023/10/20 00:51:34;;;;;;;;;1.75;0.00;;;;;18.52;88.96;97581.97;6184933;23;45284;-68
2023/10/20 00:54:01;;;;;;;;;0.00;0.00;;;;;18.47;89.14;97571.69;6185081;23;45260;-68
2023/10/20 00:56:28;;;;;;;;;0.00;0.00;;;;;18.52;89.17;97573.84;6185823;23;45280;-69
2023/10/20 00:58:54;;;;;;;;;1.75;0.00;;;;;18.49;88.92;97564.28;6186324;23;45346;-68
2023/10/20 01:01:19;;;;;;;;;0.00;0.00;;;;;18.48;89.30;97561.75;6185793;23;45256;-68
2023/10/20 01:03:45;;;;;;;;;0.75;0.00;;;;;18.46;89.60;97559.22;6182954;23;56287;-68
2023/10/20 01:06:10;;;;;;;;;0.00;0.00;;;;;18.49;89.89;97566.09;6186069;23;45484;-68
2023/10/20 01:08:36;;;;;;;;;0.00;0.00;;;;;18.46;89.72;97552.97;6186160;23;45348;-68
2023/10/20 01:11:01;;;;;;;;;0.00;0.00;;;;;18.48;89.48;97550.94;6185835;23;45531;-68
2023/10/20 01:13:27;;;;;;;;;0.00;0.00;;;;;18.45;89.62;97535.91;6184376;23;45940;-68
2023/10/20 01:15:53;;;;;;;;;0.00;0.00;;;;;18.44;89.94;97523.47;6184823;23;45337;-68
2023/10/20 01:18:19;;;;;;;;;0.00;0.00;;;;;18.41;89.54;97522.94;6185895;23;45259;-68
2023/10/20 01:20:44;;;;;;;;;0.00;0.00;;;;;18.37;89.24;97525.16;6185527;23;45201;-68
2023/10/20 01:23:10;;;;;;;;;0.00;0.00;;;;;18.35;89.77;97529.09;6185399;23;45968;-68
2023/10/20 01:25:36;;;;;;;;;0.00;0.00;;;;;18.35;89.19;97542.56;6186225;23;45223;-68
2023/10/20 01:28:01;;;;;;;;;0.75;0.00;;;;;18.37;88.83;97545.94;6186583;23;45255;-68
2023/10/20 01:30:28;;;;;;;;;0.00;0.00;;;;;18.34;88.95;97544.41;6185069;23;45374;-68
2023/10/20 01:32:54;;;;;;;;;0.00;0.00;;;;;18.32;88.69;97525.69;6158857;23;48393;-68
2023/10/20 01:35:20;;;;;;;;;0.00;0.00;;;;;18.28;88.30;97518.16;6185621;23;45382;-68
2023/10/20 01:37:45;;;;;;;;;0.00;0.00;;;;;18.23;88.70;97501.66;6186099;23;45517;-68
2023/10/20 01:40:12;;;;;;;;;0.00;0.00;;;;;18.19;88.63;97498.44;6184725;23;45313;-68
2023/10/20 01:42:37;;;;;;;;;0.00;0.00;;;;;18.20;88.34;97488.50;6184986;23;45351;-68
2023/10/20 01:45:03;;;;;;;;;0.00;0.00;;;;;18.12;88.62;97479.41;6185290;23;45257;-68
2023/10/20 01:47:28;;;;;;;;;0.00;0.00;;;;;18.11;87.89;97471.50;6186362;23;45313;-68
2023/10/20 01:49:54;;;;;;;;;0.50;0.00;;;;;18.14;88.17;97472.00;6185174;23;54707;-68
2023/10/20 01:52:19;;;;;;;;;0.00;0.00;;;;;18.11;88.28;97469.66;6158857;23;47460;-68
2023/10/20 01:54:46;;;;;;;;;0.00;0.00;;;;;18.04;88.06;97454.34;6185191;23;45250;-68
2023/10/20 01:57:11;;;;;;;;;0.25;0.00;;;;;18.05;88.14;97464.13;6185685;23;45522;-68
2023/10/20 01:59:36;;;;;;;;;0.00;0.00;;;;;18.11;88.26;97471.50;6184655;23;60747;-68
2023/10/20 02:02:02;;;;;;;;;0.00;0.00;;;;;18.01;88.04;97444.75;6185208;23;52327;-68
2023/10/20 02:04:27;;;;;;;;;0.00;0.00;;;;;17.86;87.72;97416.78;6185765;23;45377;-68
2023/10/20 02:06:53;;;;;;;;;0.00;0.00;;;;;17.99;88.09;97435.97;6185981;23;45316;-68
2023/10/20 02:09:18;;;;;;;;;0.00;0.00;;;;;17.98;88.38;97438.88;6185398;23;45514;-68
2023/10/20 02:11:43;;;;;;;;;0.00;0.00;;;;;17.95;88.15;97445.44;6185087;23;45425;-68
2023/10/20 02:14:09;;;;;;;;;0.00;0.00;;;;;17.95;88.64;97440.88;6184712;23;58902;-68
2023/10/20 02:16:35;;;;;;;;;0.00;0.00;;;;;17.89;87.75;97432.66;6184596;23;53748;-68
2023/10/20 02:19:00;;;;;;;;;0.00;0.00;;;;;17.86;87.45;97425.75;6185060;23;45367;-68
2023/10/20 02:21:26;;;;;;;;;0.00;0.00;;;;;17.81;87.05;97409.25;6208952;22;45937;-68
2023/10/20 02:23:51;;;;;;;;;0.00;0.00;;;;;17.75;86.77;97391.88;6158235;23;45477;-68
2023/10/20 02:26:17;;;;;;;;;0.00;0.00;;;;;17.71;86.93;97382.50;6158177;23;58754;-67
2023/10/20 02:28:42;;;;;;;;;0.00;0.00;;;;;17.66;87.25;97381.31;6184822;23;45340;-67
2023/10/20 02:31:13;;;;;;;;;0.00;0.00;;;;;17.63;87.52;97370.91;6184351;23;56457;-68
2023/10/20 02:33:39;;;;;;;;;1.00;0.00;;;;;17.66;87.51;97387.56;6185024;23;45544;-68
2023/10/20 02:36:04;;;;;;;;;0.00;0.00;;;;;17.62;87.93;97380.84;6185960;23;45326;-67
2023/10/20 02:38:30;;;;;;;;;0.00;0.00;;;;;17.63;88.30;97384.41;6185237;23;45241;-67
2023/10/20 02:40:56;;;;;;;;;0.00;0.00;;;;;17.65;88.72;97398.53;6185471;23;45983;-68
2023/10/20 02:43:22;;;;;;;;;0.00;0.00;;;;;17.65;89.10;97388.56;6185448;23;45375;-68
2023/10/20 02:45:48;;;;;;;;;0.00;0.00;;;;;17.69;88.62;97389.94;6185702;23;45269;-68
2023/10/20 02:48:13;;;;;;;;;0.00;0.00;;;;;17.70;88.53;97396.16;6185023;23;45496;-68
2023/10/20 02:50:39;;;;;;;;;0.00;0.00;;;;;17.69;88.81;97386.38;6183818;23;47049;-67
2023/10/20 02:53:04;;;;;;;;;0.00;0.00;;;;;17.68;88.97;97382.84;6184726;23;45355;-68
2023/10/20 02:55:29;;;;;;;;;0.00;0.00;;;;;17.69;88.88;97387.22;6185080;23;53161;-67
2023/10/20 02:57:55;;;;;;;;;0.00;0.00;;;;;17.69;88.80;97383.66;6185388;23;45408;-67
2023/10/20 03:00:21;;;;;;;;;0.00;0.00;;;;;17.67;88.74;97388.41;6185367;22;46557;-67
2023/10/20 03:02:48;;;;;;;;;0.00;0.00;;;;;17.69;88.45;97381.84;6184753;23;45469;-67
2023/10/20 03:05:14;;;;;;;;;0.00;0.00;;;;;17.64;88.87;97378.81;6185261;23;45312;-67
2023/10/20 03:07:39;;;;;;;;;0.00;0.00;;;;;17.66;88.51;97384.00;6185021;23;45340;-67
2023/10/20 03:10:05;;;;;;;;;0.00;0.00;;;;;17.63;88.47;97363.66;6157514;23;52903;-67
2023/10/20 03:12:31;;;;;;;;;0.75;0.00;;;;;17.61;88.69;97349.50;6185762;23;45527;-67
2023/10/20 03:14:56;;;;;;;;;0.00;0.00;;;;;17.60;88.33;97354.03;6185091;23;45379;-67
2023/10/20 03:17:22;;;;;;;;;0.00;0.00;;;;;17.60;88.34;97359.44;6185622;23;45289;-67
2023/10/20 03:19:48;;;;;;;;;0.00;0.00;;;;;17.62;88.25;97350.34;6184759;23;45328;-67
2023/10/20 03:22:13;;;;;;;;;0.00;0.00;;;;;17.54;88.69;97346.69;6183759;23;45446;-67
2023/10/20 03:24:40;;;;;;;;;0.00;0.00;;;;;17.58;88.54;97353.38;6185247;23;45225;-67
2023/10/20 03:27:07;;;;;;;;;1.00;0.00;;;;;17.56;88.98;97350.03;6185400;23;45483;-67
2023/10/20 03:29:32;;;;;;;;;0.00;0.00;;;;;17.56;88.32;97333.03;6184753;23;45876;-67
2023/10/20 03:31:57;;;;;;;;;0.00;0.00;;;;;17.54;88.53;97321.56;6185489;23;45345;-67
2023/10/20 03:34:23;;;;;;;;;0.00;0.00;;;;;17.54;89.20;97321.56;6183699;23;45404;-67
2023/10/20 03:36:48;;;;;;;;;0.00;0.00;;;;;17.55;89.26;97318.69;6184849;23;45591;-67
2023/10/20 03:39:20;;;;;;;;;0.00;0.00;;;;;17.52;88.80;97319.03;6184735;23;46470;-67
2023/10/20 03:41:46;;;;;;;;;0.00;0.00;;;;;17.55;89.45;97315.16;6185188;23;45240;-67
2023/10/20 03:44:11;;;;;;;;;0.00;0.00;;;;;17.57;89.62;97318.50;6184475;23;45318;-67
2023/10/20 03:46:45;;;;;;;;;1.00;0.00;;;;;17.57;89.51;97321.19;6184926;23;49294;-67
2023/10/20 03:49:10;;;;;;;;;0.00;0.00;;;;;17.57;89.60;97334.69;6183646;23;46112;-67
2023/10/20 03:51:37;;;;;;;;;0.25;0.25;;;;;17.56;89.52;97335.72;6185054;23;45303;-67
2023/10/20 03:54:05;;;;;;;;;0.00;0.00;;;;;17.56;89.29;97343.81;6184113;23;45340;-67
2023/10/20 03:56:34;;;;;;;;;1.00;1.00;;;;;17.52;89.22;97343.31;6184090;23;45538;-67
2023/10/20 03:59:00;;;;;;;;;0.00;0.00;;;;;17.55;89.70;97355.59;6184034;23;45322;-67
2023/10/20 04:01:26;;;;;;;;;0.25;0.25;;;;;17.51;89.40;97352.41;6184691;23;45257;-68
2023/10/20 04:03:51;;;;;;;;;1.00;1.00;;;;;17.49;90.00;97377.88;6184825;23;45369;-67
2023/10/20 04:06:17;;;;;;;;;0.00;0.00;;;;;17.48;90.05;97387.00;6186035;23;45233;-67
2023/10/20 04:08:42;;;;;;;;;0.00;0.00;;;;;17.36;89.79;97365.81;6186022;23;45467;-67
2023/10/20 04:11:07;;;;;;;;;0.00;0.00;;;;;17.40;89.74;97374.38;6186455;23;45300;-68
2023/10/20 04:13:33;;;;;;;;;2.00;2.00;;;;;17.40;90.04;97372.50;6185375;23;45280;-67
2023/10/20 04:16:11;;;;;;;;;2.25;0.00;;;;;17.40;90.22;97374.38;6185933;23;45381;-67
2023/10/20 04:18:37;;;;;;;;;0.00;0.00;;;;;17.41;89.90;97376.06;6185166;23;46265;-67
2023/10/20 04:21:03;;;;;;;;;0.00;0.00;;;;;17.39;90.18;97378.06;6186308;23;45436;-67
2023/10/20 04:23:28;;;;;;;;;0.00;0.00;;;;;17.37;89.71;97364.81;6185581;23;45182;-67
2023/10/20 04:25:54;;;;;;;;;2.00;1.00;;;;;17.42;89.92;97385.81;6185943;23;45580;-67
2023/10/20 04:28:28;;;;;;;;;0.00;0.00;;;;;17.38;89.38;97390.72;6183993;23;46938;-67
2023/10/20 04:41:55;;;;;;;;;0.25;0.25;;;;;17.35;89.07;97401.03;6186021;23;45277;-67
2023/10/20 04:54:45;;;;;;;;;1.00;1.00;;;;;17.29;89.52;97432.22;6185980;23;45293;-67
2023/10/20 04:59:37;;;;;;;;;1.00;1.00;;;;;17.27;89.85;97447.72;6185075;23;45329;-68
2023/10/20 05:02:32;;;;;;;;;1.00;1.00;;;;;17.28;89.46;97445.88;6185692;23;45515;-67
2023/10/20 05:05:01;;;;;;;;;1.00;1.00;;;;;17.22;89.64;97450.06;6185115;23;45320;-67
2023/10/20 05:07:28;;;;;;;;;2.75;2.75;;;;;17.28;89.54;97460.19;6160009;23;45514;-67
2023/10/20 05:09:54;;;;;;;;;1.75;1.75;;;;;17.26;89.65;97456.81;6185507;23;45632;-67
2023/10/20 05:12:20;;;;;;;;;2.00;2.00;;;;;17.27;90.29;97455.78;6185155;23;45259;-67
2023/10/20 05:14:47;;;;;;;;;2.00;2.00;;;;;17.25;89.88;97462.38;6185291;23;45324;-67
2023/10/20 05:17:15;;;;;;;;;2.25;1.25;;;;;17.27;90.03;97455.78;6184971;23;45217;-67
2023/10/20 05:19:40;;;;;;;;;1.00;1.00;;;;;16.98;90.27;97391.72;6185796;23;45933;-67
2023/10/20 05:22:05;;;;;;;;;2.25;2.25;;;;;17.29;89.96;97445.69;6158961;23;45720;-67
2023/10/20 05:24:31;;;;;;;;;3.00;3.00;;;;;17.31;89.96;97443.66;6185113;23;52526;-67
2023/10/20 05:26:56;;;;;;;;;2.00;2.00;;;;;17.28;90.12;97435.09;6185283;23;45375;-67
2023/10/20 05:29:22;;;;;;;;;3.25;2.25;;;;;17.27;90.38;97425.31;6184669;23;45903;-67
2023/10/20 05:31:47;;;;;;;;;2.50;2.50;;;;;17.26;90.12;97431.69;6183653;23;45227;-67
2023/10/20 05:34:14;;;;;;;;;2.75;2.00;;;;;17.24;90.31;97429.22;6184603;23;45277;-67
2023/10/20 05:36:41;;;;;;;;;1.75;1.75;;;;;17.21;90.50;97425.00;6184484;23;46372;-67
2023/10/20 05:39:09;;;;;;;;;3.00;2.00;;;;;17.24;90.94;97413.03;6185593;23;45348;-67
2023/10/20 05:41:34;;;;;;;;;1.50;1.50;;;;;17.20;90.68;97403.59;6157503;23;45248;-70
2023/10/20 05:44:01;;;;;;;;;2.00;2.00;;;;;17.18;90.43;97393.00;6156537;23;45312;-69
2023/10/20 05:46:26;;;;;;;;;2.75;2.50;;;;;17.20;90.85;97400.91;6183197;23;45450;-70
2023/10/20 05:48:51;;;;;;;;;2.75;2.75;;;;;17.16;90.82;97410.38;6185679;23;46414;-70
2023/10/20 05:51:17;;;;;;;;;1.75;1.75;;;;;17.15;90.76;97409.50;6185384;23;48577;-70
2023/10/20 05:53:42;;;;;;;;;1.25;1.25;;;;;17.17;90.74;97412.88;6185481;23;45285;-70
2023/10/20 05:56:07;;;;;;;;;4.00;1.75;;;;;17.08;91.31;97383.44;6185963;23;45372;-70
2023/10/20 05:58:33;;;;;;;;;3.00;2.50;;;;;17.16;90.88;97410.38;6184853;23;45750;-70
2023/10/20 06:01:05;;;;;;;;;3.50;2.50;;;;;17.18;90.89;97421.81;6184926;23;45260;-70
2023/10/20 06:03:31;;;;;;;;;2.00;2.00;;;;;17.15;91.38;97409.50;6183222;23;45278;-70
2023/10/20 06:06:00;;;;;;;;;2.00;2.00;;;;;17.18;91.65;97419.94;6185403;23;49205;-70
2023/10/20 06:08:28;;;;;;;;;2.00;2.00;;;;;17.16;91.61;97421.16;6158217;23;47711;-70
2023/10/20 06:10:58;;;;;;;;;2.00;2.00;;;;;17.15;91.30;97431.06;6185424;23;45316;-70
2023/10/20 06:13:24;;;;;;;;;2.25;2.25;;;;;17.15;91.38;97428.38;6184561;23;45313;-70
2023/10/20 06:15:49;;;;;;;;;2.50;2.50;;;;;17.15;91.23;97416.75;6184944;23;45308;-70
2023/10/20 06:18:14;;;;;;;;;1.00;1.00;;;;;17.07;91.40;97406.00;6185043;23;45300;-70
2023/10/20 06:20:40;;;;;;;;;2.00;2.00;;;;;17.12;91.27;97425.19;6185394;23;52808;-70
2023/10/20 06:23:05;;;;;;;;;1.25;1.25;;;;;17.11;91.61;97427.03;6158322;23;45425;-70
2023/10/20 06:25:31;;;;;;;;;2.25;1.75;;;;;17.08;91.70;97427.38;6185563;23;45333;-70
2023/10/20 06:27:56;;;;;;;;;1.00;1.00;;;;;17.18;91.17;97424.50;6184243;23;46225;-70
2023/10/20 06:30:22;;;;;;;;;2.00;2.00;;;;;17.12;91.58;97415.22;6184886;23;45241;-70
2023/10/20 06:33:16;;;;;;;;;2.50;2.50;;;;;17.19;91.21;97435.13;6185340;23;45454;-70
2023/10/20 06:35:51;;;;;;;;;1.00;1.00;;;;;17.17;90.96;97429.06;6182996;23;45716;-70
2023/10/20 06:38:44;;;;;;;;;1.00;1.00;;;;;17.19;91.74;97423.47;6185192;23;46101;-70
2023/10/20 06:41:10;;;;;;;;;1.50;1.50;;;;;17.13;91.56;97418.78;6183100;23;45406;-70
2023/10/20 06:43:36;;;;;;;;;0.50;0.50;;;;;17.18;91.12;97422.63;6182877;23;45359;-70
2023/10/20 06:46:01;;;;;;;;;1.00;1.00;;;;;17.20;91.08;97426.00;6156018;23;45326;-69
2023/10/20 06:48:28;;;;;;;;;1.25;0.25;;;;;17.19;90.99;97421.63;6185298;23;46961;-69
2023/10/20 06:50:54;;;;;;;;;1.25;1.25;;;;;17.18;91.03;97419.94;6184516;23;45216;-69
2023/10/20 06:53:19;;;;;;;;;2.00;2.00;;;;;17.12;90.79;97422.47;6183788;23;45410;-69
2023/10/20 06:55:46;;;;;;;;;2.50;2.50;;;;;17.14;91.04;97425.84;6184599;23;45309;-69
2023/10/20 06:58:12;;;;;;;;;1.00;1.00;;;;;17.10;90.93;97433.44;6184707;23;45211;-69
2023/10/20 07:00:39;;;;;;;;;2.00;2.00;;;;;17.09;91.08;97439.84;6184630;23;45478;-69
2023/10/20 07:03:04;;;;;;;;;1.00;1.00;;;;;17.15;90.64;97446.41;6185774;23;45379;-69
2023/10/20 07:05:31;;;;;;;;;2.00;2.00;;;;;17.15;90.92;97457.19;6185073;23;45312;-69
2023/10/20 07:07:59;;;;;;;;;1.50;1.50;;;;;17.10;90.82;97451.47;6184794;23;46018;-69
2023/10/20 07:10:25;;;;;;;;;2.00;2.00;;;;;17.09;90.47;97444.38;6184216;23;45219;-69
2023/10/20 07:12:50;;;;;;;;;1.00;1.00;;;;;17.07;90.53;97451.81;6184392;23;45320;-69
2023/10/20 07:15:16;;;;;;;;;1.00;1.00;;;;;17.08;90.57;97454.34;6183742;23;45415;-68
2023/10/20 07:17:42;;;;;;;;;2.75;1.75;;;;;17.10;90.53;97455.00;6184009;23;46991;-69
2023/10/20 07:20:08;;;;;;;;;4.00;1.75;;;;;17.06;90.38;97447.41;6180878;23;45192;-69
2023/10/20 07:22:33;;;;;;;;;3.00;3.00;;;;;17.06;90.90;97461.75;6181849;23;45517;-68
2023/10/20 07:24:59;;;;;;;;;3.50;2.50;;;;;17.03;90.61;97456.69;6182568;23;45786;-69
2023/10/20 07:27:25;;;;;;;;;2.75;2.75;;;;;16.98;90.97;97443.72;6180536;23;46309;-69
2023/10/20 07:29:50;;;;;;;;;2.00;2.00;;;;;17.04;91.14;97461.91;6155025;23;45533;-69
2023/10/20 07:32:17;;;;;;;;;0.00;0.00;;;;;17.03;90.79;97452.13;6183670;23;45748;-69
2023/10/20 07:34:42;;;;;;;;;2.75;2.00;;;;;17.08;91.07;97473.19;6181729;23;45672;-69
2023/10/20 07:37:07;;;;;;;;;2.00;2.00;;;;;17.12;90.86;97473.69;6184343;23;45329;-69
2023/10/20 07:39:35;;;;;;;;;3.50;3.00;;;;;17.12;91.14;97457.53;6185660;23;45418;-69
2023/10/20 07:42:01;;;;;;;;;3.00;2.00;;;;;17.04;90.94;97458.41;6185320;23;45197;-69
2023/10/20 07:44:26;;;;;;;;;3.00;3.00;;;;;17.00;91.45;97465.94;6184505;23;45679;-67
2023/10/20 07:46:51;;;;;;;;;3.50;3.00;;;;;17.03;91.37;97480.94;6158465;23;46202;-66
2023/10/20 07:49:17;;;;;;;;;3.00;2.25;;;;;17.01;90.86;97485.69;6185685;23;45270;-67
2023/10/20 07:51:42;;;;;;;;;2.00;2.00;;;;;17.04;90.87;97491.56;6185603;23;45322;-67
2023/10/20 07:54:10;;;;;;;;;2.00;2.00;;;;;17.06;91.06;97501.31;6185858;23;45643;-66
2023/10/20 07:56:38;;;;;;;;;4.00;2.00;;;;;17.07;90.94;97490.34;6185347;22;52730;-68
2023/10/20 07:59:07;;;;;;;;;2.00;2.00;;;;;17.02;91.31;97488.19;6185139;23;45266;-66
2023/10/20 08:01:33;;;;;;;;;2.00;2.00;;;;;17.03;91.18;97507.91;6185724;23;45314;-66
2023/10/20 08:03:58;;;;;;;;;4.50;3.00;;;;;17.02;91.28;97503.50;6158627;23;45612;-66
2023/10/20 08:06:24;;;;;;;;;3.25;2.00;;;;;17.03;91.18;97495.25;6183193;23;53135;-66
2023/10/20 08:08:49;;;;;;;;;1.00;1.00;;;;;17.04;91.80;97488.03;6184462;23;45584;-66
2023/10/20 08:11:15;;;;;;;;;2.00;2.00;;;;;17.04;91.07;97505.03;6184460;23;45266;-66
2023/10/20 08:13:40;;;;;;;;;2.75;2.50;;;;;16.99;91.06;97509.22;6183918;23;45374;-66
2023/10/20 08:16:06;;;;;;;;;2.00;2.00;;;;;17.01;90.63;97515.31;6184402;23;45424;-66
2023/10/20 08:18:35;;;;;;;;;4.75;2.75;;;;;16.98;91.16;97512.94;6184529;23;46039;-66
2023/10/20 08:21:08;;;;;;;;;1.50;1.50;;;;;16.98;90.77;97516.47;6183730;23;45371;-66
2023/10/20 08:23:35;;;;;;;;;2.00;2.00;;;;;16.97;90.62;97514.81;6183710;23;45265;-67
2023/10/20 08:26:01;;;;;;;;;2.25;2.25;;;;;17.00;90.98;97527.91;6183021;23;45428;-66
2023/10/20 08:28:26;;;;;;;;;3.00;3.00;;;;;17.00;90.90;97532.47;6185087;23;45333;-66
2023/10/20 08:31:14;;;;;;;;;2.25;2.25;;;;;16.99;90.37;97528.09;6183440;23;45551;-66
2023/10/20 08:33:40;;;;;;;;;3.25;3.00;;;;;16.97;90.77;97527.41;6184037;23;45328;-66
2023/10/20 08:36:13;;;;;;;;;3.25;2.00;;;;;16.88;90.76;97515.81;6184844;23;45413;-66
2023/10/20 08:38:39;;;;;;;;;2.25;2.25;;;;;16.83;90.74;97518.97;6182144;23;45540;-68
2023/10/20 08:41:23;;;;;;;;;3.50;3.50;;;;;16.76;90.67;97503.66;6183030;23;45332;-66
2023/10/20 08:43:49;;;;;;;;;2.00;2.00;;;;;16.84;90.46;97518.00;6182533;23;45391;-66
2023/10/20 08:46:16;;;;;;;;;1.00;1.00;;;;;16.86;90.59;97528.63;6184161;23;45396;-64
2023/10/20 08:48:44;;;;;;;;;4.00;3.00;;;;;16.77;90.57;97513.41;6184324;23;45309;-67
2023/10/20 08:51:11;;;;;;;;;2.50;1.25;;;;;16.82;90.64;97524.53;6183456;23;45486;-66
2023/10/20 08:53:38;;;;;;;;;2.25;2.25;;;;;16.86;90.75;97528.63;6183936;23;45795;-66
2023/10/20 08:56:05;;;;;;;;;3.25;2.00;;;;;16.78;90.60;97515.09;6184261;23;45398;-66
2023/10/20 08:58:31;;;;;;;;;1.25;1.25;;;;;16.92;90.89;97535.16;6182684;23;45812;-65
2023/10/20 09:00:57;;;;;;;;;1.75;1.75;;;;;16.95;90.43;97537.53;6184049;23;45758;-65
2023/10/20 09:03:25;;;;;;;;;2.25;2.25;;;;;16.97;90.51;97535.50;6183881;23;45285;-65
2023/10/20 09:05:52;;;;;;;;;4.75;4.00;;;;;17.00;90.95;97536.00;6183850;23;45846;-66
2023/10/20 09:08:17;;;;;;;;;3.75;2.75;;;;;17.01;90.87;97544.94;6183834;23;45270;-66
2023/10/20 09:10:45;;;;;;;;;3.25;2.00;;;;;17.00;90.82;97544.09;6183753;23;45275;-65
2023/10/20 09:13:11;;;;;;;;;3.25;3.25;;;;;17.04;90.37;97547.31;6183317;23;45466;-65
2023/10/20 09:15:37;;;;;;;;;4.00;3.00;;;;;16.99;90.70;97534.34;6183220;23;46803;-65
2023/10/20 09:18:06;;;;;;;;;3.00;2.25;;;;;17.06;90.43;97539.91;6184520;23;45341;-66
2023/10/20 09:20:32;;;;;;;;;3.75;2.00;;;;;17.07;90.22;97543.41;6184447;23;45414;-66
2023/10/20 09:22:57;;;;;;;;;2.50;2.50;;;;;17.03;90.53;97537.53;6184360;23;45550;-65
2023/10/20 09:25:22;;;;;;;;;2.75;2.75;;;;;17.08;89.97;97547.81;6155966;23;47357;-65
2023/10/20 09:27:48;;;;;;;;;3.00;3.00;;;;;17.08;89.87;97543.25;6183556;23;45616;-66
2023/10/20 09:30:14;;;;;;;;;3.00;2.00;;;;;17.08;89.47;97550.50;6183946;23;45526;-67
2023/10/20 09:32:40;;;;;;;;;3.00;2.00;;;;;17.00;88.76;97541.41;6183100;23;45386;-66
2023/10/20 09:35:05;;;;;;;;;4.00;2.50;;;;;17.04;89.46;97547.31;6182933;23;45516;-66
2023/10/20 09:37:31;;;;;;;;;3.00;2.00;;;;;17.06;89.34;97556.06;6156477;23;45517;-66
2023/10/20 09:40:08;;;;;;;;;1.00;1.00;;;;;17.08;89.16;97558.59;6182819;23;45284;-66
2023/10/20 09:43:18;;;;;;;;;2.50;2.50;;;;;17.12;89.31;97559.91;6184011;23;45549;-66
2023/10/20 09:45:52;;;;;;;;;2.50;1.75;;;;;17.13;89.28;97554.38;6146368;23;45802;-66
2023/10/20 09:48:19;;;;;;;;;4.00;3.00;;;;;17.16;89.72;97566.69;6182144;23;45486;-66
2023/10/20 09:50:47;;;;;;;;;2.00;2.00;;;;;17.18;89.88;97567.34;6183115;23;45469;-66
2023/10/20 09:53:15;;;;;;;;;4.00;2.75;;;;;17.17;89.87;97566.50;6184024;23;45315;-66
2023/10/20 09:55:42;;;;;;;;;3.00;3.00;;;;;17.18;90.41;97567.34;6183603;23;45606;-66
2023/10/20 09:58:08;;;;;;;;;4.75;4.25;;;;;17.21;89.90;97575.94;6183006;23;45499;-66
2023/10/20 10:00:34;;;;;;;;;4.75;3.00;;;;;17.22;89.78;97574.94;6183305;23;45592;-66
2023/10/20 10:03:00;;;;;;;;;3.75;2.50;;;;;17.25;89.77;97579.13;6183456;23;45384;-66
2023/10/20 10:05:28;;;;;;;;;2.00;2.00;;;;;17.30;89.91;97589.41;6183324;23;45368;-66
2023/10/20 10:08:19;;;;;;;;;4.00;4.00;;;;;17.24;89.81;97574.75;6183507;23;45385;-66
2023/10/20 10:10:44;;;;;;;;;4.00;4.00;;;;;17.31;89.84;97577.63;6183165;23;45366;-66
2023/10/20 10:13:10;;;;;;;;;4.25;3.00;;;;;17.27;89.80;97569.00;6183365;23;45352;-65
2023/10/20 10:15:45;;;;;;;;;3.00;3.00;;;;;17.39;89.61;97585.66;6180622;23;45979;-66
2023/10/20 10:18:16;;;;;;;;;4.50;4.50;;;;;17.30;90.02;97571.38;6155524;23;45745;-66
2023/10/20 10:20:49;;;;;;;;;6.00;3.25;;;;;17.32;89.75;97588.19;6182366;23;45317;-66
2023/10/20 10:23:15;;;;;;;;;3.75;3.25;;;;;17.34;90.20;97591.59;6184042;23;45383;-66
2023/10/20 10:25:42;;;;;;;;;4.00;4.00;;;;;17.36;90.71;97602.22;6180638;23;46232;-66
2023/10/20 10:28:16;;;;;;;;;1.75;1.75;;;;;17.36;90.40;97611.13;6156260;23;45765;-66
2023/10/20 10:30:44;;;;;;;;;4.75;4.50;;;;;17.32;90.86;97598.16;6179473;23;45397;-65
2023/10/20 10:33:11;;;;;;;;;3.50;3.50;;;;;17.38;90.33;97608.28;6183725;23;45537;-65
2023/10/20 10:35:40;;;;;;;;;3.50;3.50;;;;;17.41;91.08;97611.47;6183110;23;45553;-66
2023/10/20 10:38:18;;;;;;;;;8.00;6.00;;;;;17.42;91.13;97609.59;6183146;23;45792;-66
2023/10/20 10:40:45;;;;;;;;;4.25;3.00;;;;;17.43;90.91;97605.91;6180961;23;45499;-65
2023/10/20 10:43:15;;;;;;;;;6.00;6.00;;;;;17.40;91.78;97600.84;6183149;23;45427;-65
2023/10/20 10:45:40;;;;;;;;;5.75;3.50;;;;;17.47;90.87;97609.09;6183363;23;47041;-66
2023/10/20 10:48:14;;;;;;;;;3.50;2.75;;;;;17.50;90.97;97606.06;6184161;23;45238;-66
2023/10/20 10:50:42;;;;;;;;;6.00;6.00;;;;;17.52;91.10;97606.72;6184516;23;45316;-65
2023/10/20 10:53:08;;;;;;;;;5.00;4.00;;;;;17.50;90.62;97603.38;6184123;23;45225;-65
2023/10/20 10:55:35;;;;;;;;;6.25;4.75;;;;;17.51;90.51;97607.75;6182342;23;46604;-66
2023/10/20 10:58:09;;;;;;;;;8.25;4.75;;;;;17.53;90.78;97600.34;6207233;22;45498;-66
2023/10/20 11:00:35;;;;;;;;;5.00;5.00;;;;;17.47;91.26;97595.63;6182906;23;45434;-66
2023/10/20 11:03:02;;;;;;;;;4.50;4.50;;;;;17.55;91.52;97611.78;6183237;23;45359;-65
2023/10/20 11:05:28;;;;;;;;;6.50;5.75;;;;;17.56;90.81;97598.13;6182519;23;46055;-66
2023/10/20 11:07:57;;;;;;;;;4.00;4.00;;;;;17.55;91.07;97604.53;6183713;23;45318;-66
2023/10/20 11:10:28;;;;;;;;;5.00;5.00;;;;;17.63;91.23;97609.09;6184071;23;45973;-66
2023/10/20 11:12:55;;;;;;;;;5.00;4.00;;;;;17.63;91.38;97609.09;6184331;23;45237;-65
2023/10/20 11:15:20;;;;;;;;;4.00;4.00;;;;;17.61;90.86;97603.03;6154417;23;47214;-65
2023/10/20 11:17:48;;;;;;;;;5.00;5.00;;;;;17.62;90.73;97598.47;6183175;23;45341;-65
2023/10/20 11:20:17;;;;;;;;;6.00;5.00;;;;;17.63;90.11;97603.69;6183946;23;45335;-65
2023/10/20 11:22:44;;;;;;;;;5.25;4.75;;;;;17.58;90.42;97600.66;6181631;23;45352;-65
2023/10/20 11:25:18;;;;;;;;;6.50;4.75;;;;;17.60;89.63;97594.06;6182144;23;45407;-66
2023/10/20 11:27:43;;;;;;;;;6.50;5.00;;;;;17.67;90.22;97606.88;6183991;23;45283;-66
2023/10/20 11:30:09;;;;;;;;;5.00;4.00;;;;;17.66;90.14;97594.41;6182980;23;53011;-66
2023/10/20 11:32:35;;;;;;;;;6.25;4.75;;;;;17.68;90.14;97600.47;6183253;23;45289;-66
2023/10/20 11:35:01;;;;;;;;;4.25;4.25;;;;;17.69;89.29;97597.63;6154937;23;46860;-66
2023/10/20 11:37:26;;;;;;;;;4.25;4.00;;;;;17.72;89.36;97589.16;6183675;23;45236;-66
2023/10/20 11:39:52;;;;;;;;;7.00;4.25;;;;;17.66;89.09;97576.38;6183975;23;45322;-65
2023/10/20 11:42:18;;;;;;;;;5.75;4.25;;;;;17.71;88.70;97575.88;6183216;23;45551;-66
2023/10/20 11:44:43;;;;;;;;;6.00;4.00;;;;;17.74;89.06;97575.50;6182010;23;47041;-66
2023/10/20 11:47:09;;;;;;;;;5.75;3.75;;;;;17.74;88.65;97586.28;6181885;23;45606;-66
2023/10/20 11:49:34;;;;;;;;;5.75;4.00;;;;;17.79;88.68;97581.22;6184308;23;45352;-65
2023/10/20 11:52:02;;;;;;;;;3.75;3.00;;;;;17.79;88.44;97583.91;6156816;23;46669;-66
2023/10/20 11:54:27;;;;;;;;;2.75;2.75;;;;;17.80;88.83;97576.69;6182341;23;45993;-66
2023/10/20 11:56:53;;;;;;;;;6.25;4.00;;;;;17.81;88.83;97568.41;6157323;23;45405;-65